Ames, OK

2:58 AM CDT on September 20, 2014 (GMT -0500)
Vance Air Force Base | Change Station
CLOSE
Current Station
Airport
Location: Enid Vance AFB,
Elevation: 1306 ft
Nearby Weather Stations
4.0 Earthquake: Medford, Oklahoma (1 day ago)  

Elev 1306 ft 36.34 °N, 97.92 °W | Updated 1 hour ago

Partly Cloudy
Partly Cloudy
71 °F
Feels Like 71 °F
N
8
Wind Variable Wind from SSE

Today
High -- | Low -- °F
--% Chance of Precip.
Yesterday
High -- | Low -- °F
Precip. -- in
7:19 AM 7:32 PM
Waning Crescent, 14% visible
Pressure 29.95 in
Visibility 10.0 miles
Clouds Clear
Dew Point 71 °F
Humidity 100%
Rainfall 0.00 in
Snow Depth Not available.
UV 0 out of 12
Pollen 10.40 out of 12
Air Quality Not available.
Flu Activity Not available.
METAR KEND 200658Z AUTO 16007KT 10SM CLR 22/22 A2998 RMK AO2 SLP140 T02180218 $

More Conditions Fewer Conditions

Pressure 29.95 in
Visibility 10.0 miles
Clouds Clear
Dew Point 71 °F
Humidity 100%
Rainfall 0.00 in
Snow Depth Not available.
UV 0 out of 12
Pollen 10.40 out of 12
Air Quality Not available.
Flu Activity Not available.
METAR KEND 200658Z AUTO 16007KT 10SM CLR 22/22 A2998 RMK AO2 SLP140 T02180218 $

More Conditions Fewer Conditions

10-Day Weather Forecast

Almanac

Astronomy

Sep. 20, 2014 Rise Set
Actual Time 7:19 AM CDT 7:32 PM CDT
Civil Twilight 6:53 AM CDT 7:58 PM CDT
Nautical Twilight 6:23 AM CDT 8:28 PM CDT
Astronomical Twilight 5:52 AM CDT 8:58 PM CDT
Moon 4:04 AM CDT 5:32 PM CDT
Length of Visible Light 13h 04m
Length of Day
12h 13m
Tomorrow will be 2m 16s shorter.
Waning Crescent, 14% of the Moon is Illuminated
Today
Waning Crescent
Sep 24
New
Oct 1
First Quarter
Oct 8
Full
Oct 15
Last Quarter

Today's Extremes

State Highs State Lows

Community

WunderPhotos

Upload Photos

1,754,793 photos uploaded!

WunderBlogs® & News

Nearby

Snow Depth

Station Depth Elevation
No new snow has been reported.

Earthquake Activity

City Distance Mag. Time & Date
Medford, Oklahoma 47 miles 3.2 2:10 AM CDT
2014-09-20
Luther, Oklahoma 71 miles 2.7 4:47 PM CDT
2014-09-19
Guthrie, Oklahoma 51 miles 3.9 12:23 PM CDT
2014-09-19
Jones, Oklahoma 68 miles 2.8 1:13 AM CDT
2014-09-19
Minimum magnitude displayed is 2.5.

Coastal Water Temperatures

Place Temperature
No Stations Reporting

Nearby Weather Stations